Time;durP1;ratioP1;P1;durP2;ratioP2;P2;SDS_P1;SDS_P2;PMS_P1;PMS_P2;Temp;Humidity;BMP_temperature;BMP_pressure;BME280_temperature;BME280_humidity;BME280_pressure;Samples;Min_cycle;Max_cycle;Signal;HPM_P1;HPM_P2
2023/06/08 00:01:39;;;;;;;7.72;3.20;;;16.10;99.90;;;;;;5034042;28;20474;-75
2023/06/08 00:04:05;;;;;;;4.95;3.47;;;16.00;99.90;;;;;;5016606;28;20061;-76
2023/06/08 00:06:33;;;;;;;4.40;3.47;;;16.00;99.90;;;;;;5016344;28;20045;-76
2023/06/08 00:09:03;;;;;;;4.05;3.65;;;15.90;99.90;;;;;;5016499;28;20442;-76
2023/06/08 00:11:30;;;;;;;3.30;3.00;;;15.90;99.90;;;;;;5034221;28;20492;-76
2023/06/08 00:13:55;;;;;;;6.60;3.47;;;15.90;99.90;;;;;;5034433;28;20030;-74
2023/06/08 00:16:21;;;;;;;8.13;3.53;;;15.80;99.90;;;;;;5034127;28;20022;-76
2023/06/08 00:18:49;;;;;;;3.53;3.20;;;15.80;99.90;;;;;;5033918;28;20021;-76
2023/06/08 00:21:15;;;;;;;4.53;3.80;;;15.80;99.90;;;;;;5033635;28;20029;-76
2023/06/08 00:23:41;;;;;;;3.65;3.35;;;15.70;99.90;;;;;;5033970;28;20018;-76
2023/06/08 00:26:07;;;;;;;5.72;3.78;;;15.80;99.90;;;;;;5033891;28;20528;-76
2023/06/08 00:28:32;;;;;;;4.15;3.75;;;15.80;99.90;;;;;;5014543;28;20026;-76
2023/06/08 00:30:58;;;;;;;4.88;3.63;;;15.80;99.90;;;;;;5033496;28;20463;-76
2023/06/08 00:33:23;;;;;;;5.05;4.00;;;15.80;99.90;;;;;;5033662;28;20569;-76
2023/06/08 00:35:49;;;;;;;5.75;3.35;;;15.80;99.90;;;;;;5033648;28;20116;-76
2023/06/08 00:38:15;;;;;;;3.90;3.50;;;15.70;99.90;;;;;;5033080;28;20486;-76
2023/06/08 00:40:42;;;;;;;3.88;3.55;;;15.80;99.90;;;;;;5015772;28;20033;-76
2023/06/08 00:43:09;;;;;;;4.28;3.03;;;15.70;99.90;;;;;;5033713;28;20060;-75
2023/06/08 00:45:34;;;;;;;5.97;3.20;;;15.70;99.90;;;;;;5015663;28;20386;-76
2023/06/08 00:48:02;;;;;;;9.40;4.10;;;15.70;99.90;;;;;;5033499;28;20040;-76
2023/06/08 00:50:31;;;;;;;4.18;3.28;;;15.70;99.90;;;;;;5033445;28;20029;-76
2023/06/08 00:52:57;;;;;;;6.43;3.97;;;15.70;99.90;;;;;;5033548;28;20020;-76
2023/06/08 00:55:24;;;;;;;4.07;3.60;;;15.70;99.90;;;;;;5015592;28;20021;-76
2023/06/08 00:57:51;;;;;;;7.10;3.65;;;15.70;99.90;;;;;;5015533;28;20022;-76
2023/06/08 01:00:17;;;;;;;4.80;3.90;;;15.70;99.90;;;;;;5015579;28;20120;-76
2023/06/08 01:02:43;;;;;;;6.63;4.28;;;15.70;99.90;;;;;;5014698;28;20116;-75
2023/06/08 01:05:09;;;;;;;7.97;4.57;;;15.70;99.90;;;;;;5032907;28;20029;-75
2023/06/08 01:07:53;;;;;;;4.45;4.00;;;15.70;99.90;;;;;;5032795;28;20393;-76
2023/06/08 01:10:28;;;;;;;5.57;4.63;;;15.70;99.90;;;;;;5033242;28;20035;-76
2023/06/08 01:13:08;;;;;;;;;;;15.80;99.90;;;;;;5033634;28;20025;-76
2023/06/08 01:15:40;;;;;;;9.27;4.72;;;15.90;99.90;;;;;;5032968;28;19905;-76
2023/06/08 01:18:07;;;;;;;8.10;4.65;;;15.90;99.90;;;;;;5015178;28;20029;-76
2023/06/08 01:20:55;;;;;;;4.25;3.80;;;16.00;99.90;;;;;;5032986;28;20052;-76
2023/06/08 01:23:27;;;;;;;5.35;3.92;;;16.00;99.90;;;;;;5033024;28;20021;-76
2023/06/08 01:25:56;;;;;;;4.50;4.10;;;15.90;99.90;;;;;;5015273;28;20558;-77
2023/06/08 01:28:23;;;;;;;7.88;4.30;;;15.90;99.90;;;;;;5014635;28;20026;-77
2023/06/08 01:30:49;;;;;;;8.75;4.25;;;15.90;99.90;;;;;;5032931;28;20017;-76
2023/06/08 01:33:17;;;;;;;4.25;3.35;;;15.70;99.90;;;;;;5015023;28;20036;-77
2023/06/08 01:35:48;;;;;;;9.98;4.28;;;16.00;99.90;;;;;;5032730;28;20022;-76
2023/06/08 01:38:28;;;;;;;8.38;4.88;;;15.90;99.90;;;;;;5032520;28;20470;-76
2023/06/08 01:40:56;;;;;;;7.72;4.72;;;15.90;99.90;;;;;;5032446;28;20041;-76
2023/06/08 01:43:25;;;;;;;5.93;4.55;;;15.90;99.90;;;;;;5032044;28;20105;-76
2023/06/08 01:45:57;;;;;;;8.48;4.70;;;15.90;99.90;;;;;;5014651;28;20040;-76
2023/06/08 01:48:24;;;;;;;9.00;5.28;;;15.80;99.90;;;;;;5032321;28;20025;-76
2023/06/08 01:50:51;;;;;;;5.10;4.20;;;15.80;99.90;;;;;;5032253;28;20497;-76
2023/06/08 01:53:17;;;;;;;9.45;4.72;;;15.80;99.90;;;;;;5032406;28;20029;-76
2023/06/08 01:55:43;;;;;;;11.35;4.88;;;15.80;99.90;;;;;;5032248;28;20101;-76
2023/06/08 01:58:08;;;;;;;9.05;4.40;;;15.80;99.90;;;;;;5014549;28;20450;-75
2023/06/08 02:00:34;;;;;;;6.22;4.45;;;15.70;99.90;;;;;;5014371;28;20029;-76
2023/06/08 02:03:00;;;;;;;4.43;3.97;;;15.70;99.90;;;;;;5032246;28;20036;-76
2023/06/08 02:05:26;;;;;;;6.40;4.70;;;15.70;99.90;;;;;;5014463;28;20028;-76
2023/06/08 02:07:51;;;;;;;4.38;3.92;;;15.70;99.90;;;;;;5031932;28;20053;-75
2023/06/08 02:10:17;;;;;;;6.68;4.65;;;15.70;99.90;;;;;;5031845;28;20382;-76
2023/06/08 02:12:43;;;;;;;5.97;4.28;;;15.70;99.90;;;;;;5032252;28;20017;-76
2023/06/08 02:15:09;;;;;;;8.02;4.63;;;15.70;99.90;;;;;;5014246;28;20026;-76
2023/06/08 02:17:35;;;;;;;7.38;4.88;;;15.60;99.90;;;;;;5014151;28;20116;-76
2023/06/08 02:20:06;;;;;;;5.70;4.32;;;15.60;99.90;;;;;;5014217;28;20026;-75
2023/06/08 02:22:32;;;;;;;6.68;4.35;;;15.60;99.90;;;;;;5031924;28;20389;-76
2023/06/08 02:24:58;;;;;;;5.57;4.07;;;15.60;99.90;;;;;;5030742;28;20029;-76
2023/06/08 02:27:23;;;;;;;7.47;4.35;;;15.60;99.90;;;;;;5013690;28;20021;-76
2023/06/08 02:29:49;;;;;;;6.57;4.68;;;15.60;99.90;;;;;;5031832;28;20022;-76
2023/06/08 02:32:15;;;;;;;4.88;3.90;;;15.70;99.90;;;;;;5031682;28;20056;-76
2023/06/08 02:34:41;;;;;;;6.28;4.05;;;15.90;99.90;;;;;;5031801;28;20049;-76
2023/06/08 02:37:07;;;;;;;8.02;3.97;;;15.70;99.90;;;;;;5031851;28;20105;-76
2023/06/08 02:39:33;;;;;;;8.38;4.18;;;15.70;99.90;;;;;;5013901;28;20129;-76
2023/06/08 02:41:58;;;;;;;6.05;3.35;;;15.70;99.90;;;;;;5031483;28;20045;-76
2023/06/08 02:44:24;;;;;;;6.43;5.10;;;15.70;99.90;;;;;;5031695;28;20053;-75
2023/06/08 02:46:50;;;;;;;6.45;4.57;;;15.70;99.90;;;;;;5013895;28;20463;-76
2023/06/08 02:49:16;;;;;;;13.80;3.63;;;15.70;99.90;;;;;;5013803;28;20076;-76
2023/06/08 02:51:42;;;;;;;17.55;3.72;;;15.70;99.90;;;;;;5031420;28;20116;-76
2023/06/08 02:54:07;;;;;;;9.30;3.92;;;15.70;99.90;;;;;;5035434;28;20028;-76
2023/06/08 02:56:33;;;;;;;14.48;3.63;;;15.70;99.90;;;;;;5035609;28;20101;-76
2023/06/08 02:58:59;;;;;;;11.60;3.65;;;15.60;99.90;;;;;;5017685;28;20026;-75
2023/06/08 03:01:30;;;;;;;7.38;3.80;;;15.50;99.90;;;;;;5017948;28;20021;-76
2023/06/08 03:03:56;;;;;;;7.85;3.40;;;15.50;99.90;;;;;;5035600;28;20033;-76
2023/06/08 03:06:21;;;;;;;7.35;3.38;;;15.50;99.90;;;;;;5035354;28;20029;-76
2023/06/08 03:08:53;;;;;;;6.40;3.78;;;15.60;99.90;;;;;;5017504;28;20021;-76
2023/06/08 03:11:22;;;;;;;9.93;2.90;;;15.50;99.90;;;;;;5035345;28;20375;-76
2023/06/08 03:13:49;;;;;;;10.32;3.58;;;15.50;99.90;;;;;;5035389;28;20044;-75
2023/06/08 03:16:15;;;;;;;10.07;3.67;;;15.50;99.90;;;;;;5017488;28;20051;-76
2023/06/08 03:18:42;;;;;;;11.18;3.72;;;15.40;99.90;;;;;;5034996;28;20017;-76
2023/06/08 03:21:08;;;;;;;18.45;3.28;;;15.40;99.90;;;;;;5017338;28;20052;-77
2023/06/08 03:23:37;;;;;;;5.95;3.58;;;15.40;99.90;;;;;;5035195;28;20025;-77
2023/06/08 03:26:03;;;;;;;9.73;2.95;;;15.50;99.90;;;;;;5017258;28;20437;-77
2023/06/08 03:28:29;;;;;;;12.57;3.55;;;15.50;99.90;;;;;;5034672;28;20021;-76
2023/06/08 03:30:55;;;;;;;12.40;3.40;;;15.50;99.90;;;;;;5034988;28;20036;-77
2023/06/08 03:33:20;;;;;;;14.63;3.60;;;15.60;99.90;;;;;;5017270;28;20025;-76
2023/06/08 03:35:47;;;;;;;9.05;3.35;;;15.60;99.90;;;;;;5016897;28;20022;-77
2023/06/08 03:38:14;;;;;;;5.25;3.10;;;15.60;99.90;;;;;;5034594;28;20044;-77
2023/06/08 03:40:40;;;;;;;6.28;3.47;;;15.60;99.90;;;;;;5034629;28;20035;-76
2023/06/08 03:43:05;;;;;;;8.38;3.30;;;15.60;99.90;;;;;;5035950;28;20437;-75
2023/06/08 03:45:31;;;;;;;3.85;2.67;;;15.60;99.90;;;;;;5034609;28;20021;-76
2023/06/08 03:47:57;;;;;;;4.22;3.35;;;15.70;99.90;;;;;;5034599;28;20030;-76
2023/06/08 03:50:22;;;;;;;4.53;3.00;;;15.60;99.90;;;;;;5034500;28;20092;-75
2023/06/08 03:52:48;;;;;;;6.32;2.90;;;15.70;99.90;;;;;;5016868;28;20021;-75
2023/06/08 03:55:13;;;;;;;3.25;2.95;;;15.70;99.90;;;;;;5034531;28;20060;-76
2023/06/08 03:57:40;;;;;;;3.70;3.03;;;15.80;99.90;;;;;;5034386;28;20045;-76
2023/06/08 04:00:11;;;;;;;12.73;3.78;;;15.70;99.90;;;;;;5016822;28;20080;-76
2023/06/08 04:02:40;;;;;;;12.07;4.70;;;15.70;99.90;;;;;;5016449;28;20029;-75
2023/06/08 04:05:09;;;;;;;3.47;2.70;;;15.80;99.90;;;;;;5015222;28;20108;-76
2023/06/08 04:07:36;;;;;;;4.65;3.13;;;15.90;99.90;;;;;;5034507;28;20394;-75
2023/06/08 04:10:02;;;;;;;6.43;3.22;;;15.90;99.90;;;;;;5034477;28;20032;-76
2023/06/08 04:12:28;;;;;;;4.13;3.55;;;15.90;99.90;;;;;;5034348;28;20356;-76
2023/06/08 04:14:54;;;;;;;3.58;3.10;;;15.90;99.90;;;;;;5016470;28;20072;-76
2023/06/08 04:17:20;;;;;;;5.32;3.30;;;15.90;99.90;;;;;;5007025;28;20026;-75
2023/06/08 04:19:45;;;;;;;3.67;3.28;;;15.90;99.90;;;;;;4996955;28;20490;-76
2023/06/08 04:22:11;;;;;;;6.20;3.90;;;16.40;99.90;;;;;;4996858;28;20084;-75
2023/06/08 04:24:38;;;;;;;8.13;4.93;;;16.60;99.90;;;;;;4996527;28;20069;-76
2023/06/08 04:27:06;;;;;;;5.53;4.00;;;17.00;99.90;;;;;;5015229;28;20387;-76
2023/06/08 04:29:32;;;;;;;3.88;3.22;;;17.00;99.90;;;;;;5015093;28;20068;-76
2023/06/08 04:31:58;;;;;;;5.82;2.97;;;16.90;99.90;;;;;;5014551;28;20026;-73
2023/06/08 04:34:23;;;;;;;4.47;3.47;;;16.80;99.90;;;;;;5014326;28;20018;-75
2023/06/08 04:36:49;;;;;;;2.75;2.55;;;16.90;99.90;;;;;;5014415;28;20491;-75
2023/06/08 04:39:15;;;;;;;3.45;2.97;;;16.90;99.90;;;;;;4996652;28;20494;-75
2023/06/08 04:41:45;;;;;;;3.17;2.88;;;17.10;99.90;;;;;;5014286;28;20041;-74
2023/06/08 04:44:13;;;;;;;3.15;2.92;;;17.20;99.90;;;;;;4997033;28;20026;-75
2023/06/08 04:46:42;;;;;;;2.92;2.65;;;17.30;99.90;;;;;;5015243;28;20034;-75
2023/06/08 04:49:09;;;;;;;3.00;2.60;;;17.50;99.90;;;;;;4996461;28;20040;-75
2023/06/08 04:51:39;;;;;;;3.88;2.80;;;17.50;99.90;;;;;;4996628;28;20024;-76
2023/06/08 04:54:05;;;;;;;5.20;3.15;;;17.50;99.90;;;;;;5014151;28;20026;-75
2023/06/08 04:56:33;;;;;;;7.47;3.50;;;17.90;99.90;;;;;;4996239;28;20152;-75
2023/06/08 04:58:59;;;;;;;4.63;4.07;;;18.10;99.90;;;;;;5014145;28;20025;-75
2023/06/08 05:01:25;;;;;;;3.83;3.47;;;18.00;99.90;;;;;;5014122;28;20410;-75
2023/06/08 05:03:51;;;;;;;4.97;3.72;;;18.00;99.90;;;;;;5014199;28;20018;-75
2023/06/08 05:06:17;;;;;;;4.35;3.10;;;17.90;99.90;;;;;;5013791;28;20445;-74
2023/06/08 05:08:42;;;;;;;3.35;3.05;;;17.90;99.90;;;;;;5013963;28;20026;-74
2023/06/08 05:11:09;;;;;;;3.65;3.03;;;17.80;99.90;;;;;;4998571;28;20437;-74
2023/06/08 05:13:35;;;;;;;3.65;3.17;;;17.80;99.90;;;;;;5014500;28;20045;-75
2023/06/08 05:16:01;;;;;;;3.88;3.25;;;17.80;99.90;;;;;;5013850;28;20021;-75
2023/06/08 05:18:28;;;;;;;2.92;2.63;;;17.70;99.90;;;;;;5014039;28;20026;-75
2023/06/08 05:20:53;;;;;;;3.15;2.85;;;17.80;99.90;;;;;;5014186;28;20025;-75
2023/06/08 05:23:19;;;;;;;3.67;3.33;;;18.00;99.90;;;;;;5014216;28;20022;-74
2023/06/08 05:25:45;;;;;;;3.75;3.45;;;18.10;99.90;;;;;;5014302;28;20033;-76
2023/06/08 05:28:11;;;;;;;3.65;3.22;;;18.00;99.90;;;;;;5013481;28;20029;-75
2023/06/08 05:30:36;;;;;;;3.83;3.28;;;17.80;99.90;;;;;;4996142;28;20033;-75
2023/06/08 05:33:02;;;;;;;3.78;3.47;;;17.70;99.90;;;;;;4996435;28;20029;-75
2023/06/08 05:35:28;;;;;;;3.72;3.33;;;17.60;99.90;;;;;;4995930;28;20030;-76
2023/06/08 05:37:54;;;;;;;3.03;2.55;;;17.80;99.90;;;;;;4996293;28;20022;-75
2023/06/08 05:40:20;;;;;;;3.42;2.85;;;17.80;99.90;;;;;;5013641;28;20483;-74
2023/06/08 05:42:45;;;;;;;3.38;2.90;;;17.80;99.90;;;;;;5026448;28;20028;-73
2023/06/08 05:45:11;;;;;;;4.82;3.33;;;17.90;99.90;;;;;;5032834;28;20452;-75
2023/06/08 05:47:38;;;;;;;3.17;2.88;;;17.90;99.90;;;;;;5013901;28;20104;-75
2023/06/08 05:50:04;;;;;;;2.95;2.75;;;18.10;99.90;;;;;;5015753;28;20029;-75
2023/06/08 05:52:31;;;;;;;3.40;3.10;;;18.30;99.90;;;;;;5015679;28;20515;-75
2023/06/08 05:54:57;;;;;;;3.95;3.58;;;18.30;99.90;;;;;;5031155;28;20072;-76
2023/06/08 05:57:23;;;;;;;3.08;2.75;;;18.50;99.90;;;;;;5033107;28;20461;-75
2023/06/08 05:59:49;;;;;;;3.20;2.75;;;18.60;99.90;;;;;;5035778;28;20060;-75
2023/06/08 06:02:14;;;;;;;4.25;3.05;;;18.70;99.90;;;;;;5031147;28;20033;-75
2023/06/08 06:04:40;;;;;;;4.43;3.17;;;18.80;99.90;;;;;;5033452;28;20035;-74
2023/06/08 06:07:06;;;;;;;3.40;3.10;;;19.00;99.90;;;;;;5033369;28;20052;-74
2023/06/08 06:09:32;;;;;;;3.65;3.28;;;19.10;99.90;;;;;;5035246;28;20504;-75
2023/06/08 06:11:59;;;;;;;4.57;3.13;;;19.30;99.90;;;;;;5034531;28;20029;-75
2023/06/08 06:14:24;;;;;;;6.55;4.13;;;19.60;99.90;;;;;;5041207;28;20076;-74
2023/06/08 06:16:50;;;;;;;5.88;4.03;;;19.50;99.90;;;;;;5035584;28;20490;-75
2023/06/08 06:19:16;;;;;;;4.00;3.60;;;19.70;99.90;;;;;;5035379;28;20112;-75
2023/06/08 06:21:41;;;;;;;4.50;4.10;;;19.80;99.90;;;;;;5017886;28;20067;-75
2023/06/08 06:24:07;;;;;;;8.82;5.20;;;19.80;99.90;;;;;;5035274;28;20044;-75
2023/06/08 06:26:33;;;;;;;12.65;6.25;;;19.90;99.90;;;;;;5034686;28;20029;-74
2023/06/08 06:28:58;;;;;;;6.53;5.60;;;20.20;99.90;;;;;;5017306;28;20030;-75
2023/06/08 06:31:24;;;;;;;8.13;5.82;;;20.20;99.90;;;;;;5017489;28;20071;-76
2023/06/08 06:33:51;;;;;;;9.35;6.68;;;20.10;99.90;;;;;;5036362;28;20021;-75
2023/06/08 06:36:16;;;;;;;7.50;5.70;;;20.20;99.90;;;;;;5036931;28;20025;-75
2023/06/08 06:38:42;;;;;;;10.15;6.03;;;20.50;99.90;;;;;;5038798;28;20029;-74
2023/06/08 06:41:08;;;;;;;8.90;5.25;;;20.70;99.90;;;;;;5037032;28;20060;-75
2023/06/08 06:43:33;;;;;;;7.05;6.10;;;20.70;99.90;;;;;;5017017;28;20034;-75
2023/06/08 06:45:59;;;;;;;6.72;5.35;;;20.60;99.90;;;;;;5014899;28;20025;-76
2023/06/08 06:48:25;;;;;;;6.45;5.22;;;20.80;99.90;;;;;;5031644;28;20036;-76
2023/06/08 06:50:50;;;;;;;5.93;4.68;;;21.00;99.90;;;;;;5013848;28;20037;-76
2023/06/08 06:53:16;;;;;;;5.35;4.85;;;21.00;99.90;;;;;;5031792;28;20060;-75
2023/06/08 06:55:42;;;;;;;6.47;5.25;;;20.90;99.90;;;;;;5031154;28;20478;-75
2023/06/08 06:58:08;;;;;;;5.75;5.15;;;21.00;99.90;;;;;;5031676;28;20511;-75
2023/06/08 07:00:37;;;;;;;6.35;5.22;;;21.10;99.90;;;;;;5031641;28;20036;-75
2023/06/08 07:03:07;;;;;;;6.30;5.07;;;21.30;99.90;;;;;;5031604;28;20036;-76
2023/06/08 07:05:34;;;;;;;6.05;5.18;;;21.40;99.90;;;;;;5031465;28;20025;-76
2023/06/08 07:08:01;;;;;;;7.38;4.72;;;21.70;99.90;;;;;;5031312;28;20021;-76
2023/06/08 07:10:26;;;;;;;6.57;5.05;;;21.90;99.90;;;;;;5013824;28;20078;-76
2023/06/08 07:12:52;;;;;;;5.35;3.88;;;21.60;99.90;;;;;;5031621;28;20030;-76
2023/06/08 07:15:18;;;;;;;5.63;4.20;;;21.60;99.90;;;;;;5013659;28;20393;-76
2023/06/08 07:17:45;;;;;;;5.68;4.30;;;21.90;99.90;;;;;;5013180;28;20112;-76
2023/06/08 07:20:12;;;;;;;4.82;4.32;;;21.90;99.90;;;;;;5029490;28;20030;-75
2023/06/08 07:22:37;;;;;;;5.50;4.07;;;21.90;99.90;;;;;;5031510;28;20030;-76
2023/06/08 07:25:04;;;;;;;4.18;3.78;;;21.80;99.90;;;;;;5031195;28;20474;-75
2023/06/08 07:27:30;;;;;;;4.88;4.18;;;21.50;99.90;;;;;;5013577;28;20548;-76
2023/06/08 07:29:57;;;;;;;10.55;9.55;;;21.40;99.90;;;;;;5013572;28;20107;-75
2023/06/08 07:32:22;;;;;;;5.22;4.72;;;21.30;99.90;;;;;;5013233;28;20017;-76
2023/06/08 07:34:48;;;;;;;3.72;3.42;;;21.50;99.90;;;;;;5031237;28;20595;-76
2023/06/08 07:37:14;;;;;;;4.15;3.55;;;21.60;99.90;;;;;;5012846;28;20022;-76
2023/06/08 07:39:40;;;;;;;4.28;3.80;;;21.30;99.90;;;;;;5034267;28;20022;-75
2023/06/08 07:42:06;;;;;;;4.63;3.78;;;21.30;99.90;;;;;;5034856;28;20033;-75
2023/06/08 07:44:31;;;;;;;4.82;4.05;;;21.20;99.90;;;;;;5034772;28;20533;-75
2023/06/08 07:46:57;;;;;;;4.43;4.03;;;21.20;99.90;;;;;;5035020;28;20105;-76
2023/06/08 07:49:23;;;;;;;8.63;3.67;;;21.10;99.90;;;;;;5016943;28;20057;-76
2023/06/08 07:51:50;;;;;;;4.65;3.55;;;21.10;99.90;;;;;;5034964;28;20024;-75
2023/06/08 07:54:19;;;;;;;4.65;4.18;;;21.10;99.90;;;;;;5034811;28;20087;-76
2023/06/08 07:56:46;;;;;;;5.60;4.68;;;21.00;99.90;;;;;;5034748;28;20455;-74
2023/06/08 07:59:12;;;;;;;6.38;4.45;;;21.20;99.90;;;;;;5016543;28;20049;-74
2023/06/08 08:01:37;;;;;;;7.95;4.57;;;21.50;99.90;;;;;;5016930;28;20057;-73
2023/06/08 08:04:03;;;;;;;3.78;3.47;;;21.80;99.90;;;;;;5016865;28;20044;-74
2023/06/08 08:06:29;;;;;;;4.10;3.65;;;22.00;99.90;;;;;;5034517;28;20018;-74
2023/06/08 08:08:54;;;;;;;4.82;4.00;;;22.30;99.90;;;;;;5016761;28;20039;-74
2023/06/08 08:11:20;;;;;;;5.18;3.70;;;22.30;99.90;;;;;;5016638;28;20040;-74
2023/06/08 08:13:46;;;;;;;7.60;3.30;;;22.60;99.90;;;;;;5034761;28;20105;-78
2023/06/08 08:16:12;;;;;;;3.45;3.13;;;22.70;99.90;;;;;;5020893;28;20486;-78
2023/06/08 08:18:38;;;;;;;3.70;3.08;;;22.80;99.90;;;;;;5040053;28;20041;-78
2023/06/08 08:21:04;;;;;;;4.05;3.65;;;22.80;99.90;;;;;;5039217;28;20029;-78
2023/06/08 08:23:29;;;;;;;4.10;3.30;;;22.80;99.90;;;;;;5039912;28;20021;-79
2023/06/08 08:25:55;;;;;;;7.22;3.88;;;22.80;99.90;;;;;;5021718;28;20033;-78
2023/06/08 08:28:20;;;;;;;4.03;3.50;;;22.90;99.90;;;;;;5021925;28;20033;-77
2023/06/08 08:30:46;;;;;;;3.75;3.35;;;22.80;99.90;;;;;;5022374;28;20120;-78
2023/06/08 08:33:13;;;;;;;4.28;3.88;;;22.90;99.90;;;;;;5022047;28;20025;-78
2023/06/08 08:35:38;;;;;;;8.88;5.20;;;22.90;99.90;;;;;;5039296;28;20020;-77
2023/06/08 08:38:05;;;;;;;10.05;6.15;;;22.90;99.90;;;;;;5021166;28;20021;-77
2023/06/08 08:40:30;;;;;;;4.05;3.30;;;23.00;99.90;;;;;;5037654;28;20084;-76
2023/06/08 08:43:09;;;;;;;8.88;5.63;;;23.00;99.90;;;;;;5036478;28;20029;-78
2023/06/08 08:45:38;;;;;;;3.90;3.10;;;23.00;99.90;;;;;;5019587;28;20030;-76
2023/06/08 08:48:07;;;;;;;4.47;3.85;;;23.10;99.90;;;;;;5037363;28;20087;-76
2023/06/08 08:50:38;;;;;;;5.40;4.07;;;23.30;99.90;;;;;;5035936;28;20025;-77
2023/06/08 08:53:06;;;;;;;5.28;4.55;;;23.30;99.90;;;;;;5037602;28;20048;-77
2023/06/08 08:55:33;;;;;;;5.50;3.90;;;23.40;99.90;;;;;;5017663;28;20108;-77
2023/06/08 08:58:03;;;;;;;4.63;3.92;;;23.40;99.90;;;;;;5037153;28;20025;-76
2023/06/08 09:00:32;;;;;;;5.28;3.92;;;23.50;99.90;;;;;;5037762;28;20637;-77
2023/06/08 09:02:59;;;;;;;3.10;2.80;;;23.80;99.90;;;;;;5036751;28;20068;-76
2023/06/08 09:05:25;;;;;;;2.78;2.58;;;23.80;99.60;;;;;;5016405;28;20113;-76
2023/06/08 09:07:55;;;;;;;3.10;2.80;;;23.90;99.30;;;;;;5033687;28;20046;-75
2023/06/08 09:10:25;;;;;;;3.30;2.72;;;23.90;99.60;;;;;;5033535;28;20100;-77
2023/06/08 09:12:53;;;;;;;5.25;3.33;;;24.20;99.90;;;;;;5016041;28;20022;-74
2023/06/08 09:15:34;;;;;;;3.72;3.42;;;24.40;99.80;;;;;;5015687;28;20017;-76
2023/06/08 09:18:13;;;;;;;7.78;4.93;;;24.20;98.60;;;;;;5015688;28;20497;-77
2023/06/08 09:20:39;;;;;;;4.22;3.83;;;24.10;99.90;;;;;;5033740;28;20371;-76
2023/06/08 09:23:15;;;;;;;4.30;3.33;;;24.30;99.90;;;;;;5016108;28;20029;-77
2023/06/08 09:25:41;;;;;;;3.58;2.65;;;24.00;98.70;;;;;;5033203;28;20398;-77
2023/06/08 09:28:17;;;;;;;5.45;2.72;;;23.70;99.40;;;;;;5033392;28;20028;-77
2023/06/08 09:30:44;;;;;;;3.42;2.80;;;23.40;99.90;;;;;;5015413;28;20037;-76
2023/06/08 09:33:29;;;;;;;7.15;3.17;;;23.30;99.90;;;;;;5032935;28;20068;-76
2023/06/08 09:35:58;;;;;;;3.33;3.03;;;23.10;99.90;;;;;;5015144;28;20517;-77
2023/06/08 09:38:27;;;;;;;2.78;2.58;;;22.90;99.90;;;;;;5033253;28;20022;-76
2023/06/08 09:41:22;;;;;;;2.63;2.42;;;23.00;99.90;;;;;;5032707;28;20030;-76
2023/06/08 09:43:50;;;;;;;3.63;3.15;;;22.80;99.90;;;;;;5032837;28;20397;-76
2023/06/08 09:46:45;;;;;;;3.17;2.80;;;22.80;99.90;;;;;;5033040;28;20175;-75
2023/06/08 09:49:13;;;;;;;3.70;2.97;;;22.80;99.90;;;;;;5033073;28;20033;-76
2023/06/08 09:51:44;;;;;;;3.58;2.78;;;23.00;99.90;;;;;;5015236;28;20079;-77
2023/06/08 09:54:14;;;;;;;3.05;2.42;;;23.20;99.90;;;;;;5032976;28;20025;-77
2023/06/08 09:56:47;;;;;;;2.97;2.65;;;23.60;99.90;;;;;;5032729;28;20028;-77
2023/06/08 09:59:17;;;;;;;3.17;2.90;;;24.10;99.10;;;;;;5015249;28;20024;-77
2023/06/08 10:01:55;;;;;;;2.75;2.55;;;24.30;98.20;;;;;;5015333;28;20032;-76
2023/06/08 10:04:22;;;;;;;2.80;2.60;;;24.60;97.30;;;;;;5014942;28;20172;-77
2023/06/08 10:06:54;;;;;;;3.63;3.33;;;24.90;96.40;;;;;;5015122;28;20383;-76
2023/06/08 10:09:27;;;;;;;2.97;2.78;;;25.10;96.20;;;;;;5015104;28;20040;-78
2023/06/08 10:11:55;;;;;;;2.38;2.17;;;25.30;95.00;;;;;;5014573;28;20482;-77
2023/06/08 10:14:23;;;;;;;2.58;2.38;;;25.20;94.30;;;;;;5032013;28;20033;-77
2023/06/08 10:16:49;;;;;;;2.28;2.08;;;25.10;95.40;;;;;;5032343;28;20029;-77
2023/06/08 10:19:17;;;;;;;1.95;1.85;;;25.30;95.20;;;;;;5014251;28;20075;-76
2023/06/08 10:21:43;;;;;;;2.90;2.70;;;25.10;93.90;;;;;;5014407;28;20398;-76
2023/06/08 10:24:10;;;;;;;3.20;2.83;;;25.30;96.00;;;;;;5014168;28;20017;-77
2023/06/08 10:26:36;;;;;;;2.17;1.98;;;25.40;94.10;;;;;;5014055;28;20030;-78
2023/06/08 10:29:08;;;;;;;2.20;1.98;;;25.40;93.30;;;;;;5014307;28;20390;-76
2023/06/08 10:31:37;;;;;;;2.13;2.00;;;25.30;93.20;;;;;;5014894;28;20079;-76
2023/06/08 10:34:17;;;;;;;2.30;2.10;;;25.30;94.40;;;;;;5032894;28;20041;-76
2023/06/08 10:36:44;;;;;;;2.40;2.20;;;25.00;95.00;;;;;;5032280;28;20025;-76
2023/06/08 10:39:14;;;;;;;2.33;2.13;;;24.80;94.90;;;;;;5032309;28;20136;-77
2023/06/08 10:41:42;;;;;;;2.08;1.98;;;24.50;94.80;;;;;;5032224;28;20112;-76
2023/06/08 10:44:24;;;;;;;2.25;2.05;;;24.20;95.90;;;;;;5014826;28;20028;-75
2023/06/08 10:47:04;;;;;;;2.38;2.17;;;24.20;97.20;;;;;;5032662;28;20018;-77
2023/06/08 10:49:35;;;;;;;1.65;1.55;;;24.30;97.20;;;;;;5031476;28;20436;-76
2023/06/08 10:52:04;;;;;;;2.65;2.45;;;24.60;96.40;;;;;;5032122;28;20044;-76
2023/06/08 10:54:30;;;;;;;1.95;1.83;;;24.50;95.50;;;;;;5032058;28;20559;-76
2023/06/08 10:57:04;;;;;;;2.42;1.92;;;24.30;95.80;;;;;;5014908;28;20074;-75
2023/06/08 10:59:36;;;;;;;3.00;1.92;;;24.40;96.00;;;;;;5014614;28;20394;-76
2023/06/08 11:02:06;;;;;;;2.15;1.95;;;24.40;96.40;;;;;;5014665;28;20025;-76
2023/06/08 11:04:33;;;;;;;2.05;1.85;;;24.50;95.80;;;;;;5032270;28;20045;-76
2023/06/08 11:07:06;;;;;;;2.15;2.03;;;24.30;94.90;;;;;;5014774;28;20112;-76
2023/06/08 11:09:35;;;;;;;2.30;2.10;;;24.40;95.80;;;;;;5013983;28;20033;-74
2023/06/08 11:12:01;;;;;;;2.65;2.45;;;24.30;96.40;;;;;;5032320;28;20104;-75
2023/06/08 11:14:27;;;;;;;2.58;2.38;;;24.30;97.20;;;;;;5034917;28;20017;-76
2023/06/08 11:16:56;;;;;;;2.60;2.40;;;24.30;98.50;;;;;;5018393;28;20033;-75
2023/06/08 11:19:24;;;;;;;2.50;2.30;;;24.30;97.80;;;;;;5018302;28;20021;-76
2023/06/08 11:21:53;;;;;;;2.67;2.47;;;24.20;97.50;;;;;;5017963;28;20033;-76
2023/06/08 11:24:20;;;;;;;2.85;2.63;;;24.20;98.30;;;;;;5018337;28;20045;-76
2023/06/08 11:26:47;;;;;;;2.67;2.47;;;24.00;98.50;;;;;;5036378;28;20072;-76
2023/06/08 11:29:13;;;;;;;2.35;2.13;;;24.00;99.10;;;;;;5018152;28;20363;-76
2023/06/08 11:31:42;;;;;;;2.83;2.63;;;23.90;99.30;;;;;;5018265;28;20032;-76
2023/06/08 11:34:11;;;;;;;3.45;2.25;;;24.10;98.60;;;;;;5018345;28;20064;-76
2023/06/08 11:36:38;;;;;;;2.85;2.65;;;24.10;99.40;;;;;;5035697;28;20041;-76
2023/06/08 11:39:05;;;;;;;2.55;2.35;;;24.00;98.80;;;;;;5035640;28;20021;-75
2023/06/08 11:41:31;;;;;;;3.90;2.88;;;24.30;98.20;;;;;;5035921;28;20030;-76
2023/06/08 11:43:59;;;;;;;3.10;2.35;;;24.50;98.40;;;;;;5035773;28;20024;-75
2023/06/08 11:46:26;;;;;;;5.82;2.60;;;24.40;97.90;;;;;;5017852;28;20482;-76
2023/06/08 11:48:52;;;;;;;2.45;2.25;;;24.50;97.80;;;;;;5017372;28;20025;-75
2023/06/08 11:51:18;;;;;;;3.08;2.78;;;24.50;99.30;;;;;;5017801;28;20479;-75
2023/06/08 11:53:47;;;;;;;3.45;2.95;;;24.50;99.40;;;;;;5017464;28;20062;-76
2023/06/08 11:56:13;;;;;;;3.67;3.30;;;24.50;99.70;;;;;;5035452;28;20021;-76
2023/06/08 11:58:40;;;;;;;3.13;2.83;;;24.40;99.50;;;;;;5035298;28;20021;-76
2023/06/08 12:01:11;;;;;;;2.85;2.65;;;24.50;98.70;;;;;;5017405;28;20486;-76
2023/06/08 12:03:47;;;;;;;3.45;3.15;;;24.70;99.20;;;;;;5017865;28;20049;-76
2023/06/08 12:06:15;;;;;;;2.60;2.38;;;24.90;98.50;;;;;;5017261;28;20167;-76
2023/06/08 12:08:41;;;;;;;3.80;3.50;;;25.10;98.90;;;;;;5017492;28;20116;-76
2023/06/08 12:11:08;;;;;;;3.47;3.15;;;25.00;98.50;;;;;;5017310;28;20531;-76
2023/06/08 12:13:34;;;;;;;4.88;3.03;;;25.00;98.70;;;;;;5017381;28;20478;-76
2023/06/08 12:16:04;;;;;;;1.33;1.20;;;24.90;97.40;;;;;;5035210;28;20032;-76
2023/06/08 12:18:38;;;;;;;0.60;0.60;;;24.00;90.30;;;;;;5017349;28;20436;-76
2023/06/08 12:21:03;;;;;;;1.13;0.82;;;22.80;87.10;;;;;;5035035;28;20022;-77
2023/06/08 12:23:29;;;;;;;0.73;0.73;;;22.00;88.40;;;;;;5018226;28;20030;-76
2023/06/08 12:25:55;;;;;;;0.75;0.60;;;21.50;90.90;;;;;;5033730;28;20076;-77
2023/06/08 12:28:24;;;;;;;0.50;0.50;;;21.10;91.80;;;;;;5018525;28;20083;-77
2023/06/08 12:30:51;;;;;;;2.05;0.98;;;20.60;91.70;;;;;;5018664;28;20026;-76
2023/06/08 12:33:20;;;;;;;2.85;2.03;;;20.20;91.40;;;;;;5018667;28;20025;-76
2023/06/08 12:35:49;;;;;;;0.60;0.60;;;20.00;92.10;;;;;;5018262;28;20026;-76
2023/06/08 12:38:15;;;;;;;0.60;0.52;;;19.80;93.20;;;;;;5036125;28;20020;-76
2023/06/08 12:40:47;;;;;;;0.70;0.70;;;19.70;93.40;;;;;;5017400;28;20503;-76
2023/06/08 12:43:15;;;;;;;0.52;0.50;;;19.60;94.10;;;;;;5036443;28;20029;-76
2023/06/08 12:45:41;;;;;;;0.60;0.57;;;19.50;95.30;;;;;;5034765;28;20025;-76
2023/06/08 12:48:07;;;;;;;1.52;1.02;;;19.40;95.60;;;;;;5017286;28;20026;-76